VIAR/ATQ METAR and TAF weather

Enter ICAO airport designator
Station Type Date Time Source
VIAR METAR 2021/09/24 03:00 UTC NOAA

VIAR 240300Z VRB02KT 4000 BR FEW030 SCT090 25/24 Q1010 BECMG 5000 BR


Station Type Date Time Source
VIAR Decoded METAR 2021/09/24 03:00 UTC NOAA

Amritsar, India (VIAR) 31-38N 074-52E 234M
Sep 23, 2021 - 11:00 PM EDT / 2021.09.24 0300 UTC
Wind: Variable at 2 MPH (2 KT):0
Visibility: 2 mile(s):0
Sky conditions: partly cloudy
Weather: mist
Temperature: 77 F (25 C)
Dew Point: 75 F (24 C)
Relative Humidity: 94%
Pressure (altimeter): 29.83 in. Hg (1010 hPa)
ob: VIAR 240300Z VRB02KT 4000 BR FEW030 SCT090 25/24 Q1010 BECMG 5000 BR
cycle: 3

Station Type Date Time Source
VIAR TAF 2021/09/24 06:21 UTC NOAA

TAF TAF VIAR 240500Z 2406/2512 07005KT 5000 HZ FEW030 SCT090
BECMG 2415/2417 VRB02KT 3500 BR FEW090
BECMG 2503/2505 32005KT 5000 BR HZ SCT090
TEMPO 2509/2512 FEW040CB

Example: see airport list